Time;durP1;ratioP1;P1;durP2;ratioP2;P2;SDS_P1;SDS_P2;PMS_P1;PMS_P2;Temp;Humidity;BMP_temperature;BMP_pressure;BME280_temperature;BME280_humidity;BME280_pressure;Samples;Min_cycle;Max_cycle;Signal;HPM_P1;HPM_P2
2023/05/14 00:01:24;;;;;;;5.10;4.60;;;15.40;84.80;15.70;96380.00;;;;5027926;28;20205;-78
2023/05/14 00:03:51;;;;;;;5.00;4.50;;;15.40;84.80;15.70;96378.00;;;;5024675;28;20596;-79
2023/05/14 00:06:20;;;;;;;4.70;4.30;;;15.50;84.90;15.70;96378.00;;;;5035317;28;20207;-78
2023/05/14 00:08:48;;;;;;;4.37;3.97;;;15.50;84.90;15.70;96372.00;;;;5039948;28;20220;-78
2023/05/14 00:11:16;;;;;;;5.20;4.73;;;15.50;84.90;15.70;96375.00;;;;5029444;28;20205;-79
2023/05/14 00:13:43;;;;;;;5.13;4.60;;;15.50;84.80;15.70;96369.00;;;;5038113;28;20723;-78
2023/05/14 00:16:11;;;;;;;4.73;4.43;;;15.50;84.70;15.70;96367.00;;;;5021122;28;20196;-79
2023/05/14 00:18:38;;;;;;;5.27;4.87;;;15.50;84.90;15.80;96363.00;;;;5042388;28;20201;-78
2023/05/14 00:21:06;;;;;;;4.87;4.57;;;15.50;84.90;15.80;96364.00;;;;5028786;28;20189;-78
2023/05/14 00:23:33;;;;;;;5.13;4.60;;;15.50;84.90;15.80;96358.00;;;;5035114;28;20257;-78
2023/05/14 00:26:01;;;;;;;5.67;4.80;;;15.50;85.00;15.80;96360.00;;;;5037505;28;20658;-78
2023/05/14 00:28:29;;;;;;;6.27;4.67;;;15.50;84.90;15.80;96351.00;;;;5037850;28;20201;-78
2023/05/14 00:30:56;;;;;;;4.83;4.50;;;15.50;84.90;15.80;96353.00;;;;5037585;28;20203;-78
2023/05/14 00:33:24;;;;;;;4.73;4.37;;;15.60;84.90;15.80;96354.00;;;;5037945;28;20225;-79
2023/05/14 00:35:51;;;;;;;4.50;4.20;;;15.60;84.90;15.80;96353.00;;;;5051133;28;20282;-78
2023/05/14 00:38:18;;;;;;;4.90;4.50;;;15.60;84.80;15.80;96355.00;;;;5023941;28;20196;-78
2023/05/14 00:40:50;;;;;;;5.10;4.70;;;15.60;84.70;15.80;96359.00;;;;5020015;28;20193;-78
2023/05/14 00:43:19;;;;;;;4.83;4.43;;;15.60;84.70;15.80;96361.00;;;;5038664;28;20222;-78
2023/05/14 00:45:48;;;;;;;5.00;4.60;;;15.60;84.70;15.80;96359.00;;;;5031341;28;20673;-79
2023/05/14 00:48:15;;;;;;;4.83;4.43;;;15.60;84.60;15.80;96355.00;;;;5036226;28;20209;-79
2023/05/14 00:50:42;;;;;;;4.47;4.17;;;15.60;84.60;15.80;96358.00;;;;5029517;28;20200;-78
2023/05/14 00:53:11;;;;;;;4.57;4.17;;;15.60;84.60;15.80;96353.00;;;;5020363;28;20203;-78
2023/05/14 00:55:39;;;;;;;4.80;4.40;;;15.60;84.70;15.80;96356.00;;;;5044111;28;20200;-79
2023/05/14 00:58:10;;;;;;;4.60;4.30;;;15.60;84.60;15.80;96354.00;;;;5045619;28;20671;-78
2023/05/14 01:00:40;;;;;;;4.60;4.20;;;15.60;84.70;15.80;96354.00;;;;5046275;28;20695;-78
2023/05/14 01:03:08;;;;;;;4.60;4.20;;;15.60;84.50;15.80;96351.00;;;;5032763;28;20247;-79
2023/05/14 01:05:47;;;;;;;4.90;4.57;;;15.60;84.50;15.80;96352.00;;;;5027853;28;20202;-78
2023/05/14 01:08:27;;;;;;;4.23;3.93;;;15.60;84.40;15.80;96351.00;;;;5043291;28;20200;-79
2023/05/14 01:11:04;;;;;;;4.63;3.93;;;15.60;84.30;15.80;96349.00;;;;5038846;28;20231;-79
2023/05/14 01:13:44;;;;;;;4.70;4.40;;;15.60;84.20;15.80;96341.00;;;;5037379;28;20697;-78
2023/05/14 01:16:15;;;;;;;4.60;4.30;;;15.60;84.10;15.70;96349.00;;;;5045104;28;20200;-79
2023/05/14 01:18:46;;;;;;;4.70;4.30;;;15.60;84.10;15.70;96345.00;;;;5027225;28;20193;-79
2023/05/14 01:21:34;;;;;;;5.43;4.60;;;15.60;84.10;15.70;96339.00;;;;5049528;28;20193;-79
2023/05/14 01:24:01;;;;;;;5.00;4.30;;;15.60;83.90;15.70;96335.00;;;;5040792;28;20220;-79
2023/05/14 01:26:30;;;;;;;4.63;4.23;;;15.60;84.10;15.70;96341.00;;;;5037372;28;20545;-79
2023/05/14 01:29:07;;;;;;;5.17;4.77;;;15.60;84.10;15.70;96338.00;;;;5047681;28;20254;-79
2023/05/14 01:31:39;;;;;;;4.93;4.53;;;15.60;84.30;15.70;96333.00;;;;5026699;28;20200;-79
2023/05/14 01:34:09;;;;;;;4.70;4.40;;;15.60;84.10;15.70;96330.00;;;;5030380;28;20221;-79
2023/05/14 01:36:41;;;;;;;5.30;4.83;;;15.50;84.00;15.70;96335.00;;;;5025158;28;20197;-79
2023/05/14 01:39:10;;;;;;;4.77;4.37;;;15.50;84.10;15.70;96328.00;;;;5013898;28;20669;-79
2023/05/14 01:41:39;;;;;;;4.33;3.93;;;15.50;84.10;15.70;96329.00;;;;5050541;28;20603;-79
2023/05/14 01:44:07;;;;;;;5.33;4.77;;;15.50;84.10;15.70;96335.00;;;;5045819;28;20229;-78
2023/05/14 01:46:34;;;;;;;4.60;4.20;;;15.50;84.10;15.70;96328.00;;;;5048361;28;20211;-79
2023/05/14 01:49:02;;;;;;;4.53;4.23;;;15.50;84.20;15.70;96320.00;;;;5032805;28;20197;-80
2023/05/14 01:51:29;;;;;;;4.40;4.10;;;15.50;84.20;15.70;96321.00;;;;5033400;28;20205;-79
2023/05/14 01:53:58;;;;;;;4.70;4.30;;;15.50;84.10;15.70;96316.00;;;;5021527;28;20219;-79
2023/05/14 01:56:25;;;;;;;4.90;4.50;;;15.50;83.90;15.70;96320.00;;;;5036048;28;20566;-79
2023/05/14 01:58:54;;;;;;;5.10;4.70;;;15.50;83.80;15.60;96312.00;;;;5035758;28;20193;-79
2023/05/14 02:01:22;;;;;;;5.17;4.77;;;15.50;83.90;15.60;96319.00;;;;5029706;28;20205;-79
2023/05/14 02:03:50;;;;;;;5.07;4.67;;;15.50;83.90;15.60;96318.00;;;;5030959;28;20594;-79
2023/05/14 02:06:17;;;;;;;5.30;4.80;;;15.50;83.80;15.60;96309.00;;;;5037254;28;20181;-79
2023/05/14 02:08:44;;;;;;;5.13;4.73;;;15.50;83.70;15.60;96313.00;;;;5049811;28;20459;-79
2023/05/14 02:11:13;;;;;;;4.70;4.20;;;15.50;83.80;15.60;96321.00;;;;5054307;28;20272;-79
2023/05/14 02:13:40;;;;;;;5.30;4.90;;;15.50;84.00;15.60;96311.00;;;;5035201;28;20660;-79
2023/05/14 02:16:09;;;;;;;5.13;4.67;;;15.50;84.10;15.60;96311.00;;;;5038346;28;20211;-79
2023/05/14 02:18:36;;;;;;;4.97;4.57;;;15.50;84.00;15.60;96303.00;;;;5044192;28;20208;-78
2023/05/14 02:21:03;;;;;;;5.10;4.70;;;15.50;84.10;15.60;96306.00;;;;5044584;28;20199;-79
2023/05/14 02:23:30;;;;;;;5.17;4.67;;;15.50;84.20;15.60;96306.00;;;;5046101;28;20593;-79
2023/05/14 02:25:58;;;;;;;5.37;4.87;;;15.50;84.00;15.60;96303.00;;;;5035663;28;20223;-78
2023/05/14 02:28:27;;;;;;;5.77;5.13;;;15.50;84.00;15.60;96306.00;;;;5049072;28;20588;-79
2023/05/14 02:31:00;;;;;;;5.53;5.03;;;15.50;83.80;15.60;96302.00;;;;5044748;28;20288;-79
2023/05/14 02:33:27;;;;;;;5.17;4.77;;;15.50;83.70;15.60;96300.00;;;;5013001;28;20213;-78
2023/05/14 02:35:54;;;;;;;5.90;5.40;;;15.50;83.80;15.60;96307.00;;;;5035525;28;20227;-78
2023/05/14 02:38:22;;;;;;;5.67;5.17;;;15.50;83.90;15.60;96309.00;;;;4996117;28;20204;-79
2023/05/14 02:40:49;;;;;;;5.57;5.17;;;15.50;84.00;15.60;96296.00;;;;5013885;28;20193;-79
2023/05/14 02:43:17;;;;;;;5.70;5.20;;;15.50;83.90;15.60;96297.00;;;;5014162;28;20312;-79
2023/05/14 02:45:45;;;;;;;5.70;5.20;;;15.50;84.00;15.70;96291.00;;;;5047232;28;20578;-79
2023/05/14 02:48:13;;;;;;;5.30;4.90;;;15.50;83.80;15.70;96295.00;;;;5026597;28;20199;-79
2023/05/14 02:50:40;;;;;;;5.33;4.83;;;15.50;83.80;15.70;96284.00;;;;5041812;28;20200;-79
2023/05/14 02:53:07;;;;;;;5.80;5.20;;;15.50;83.90;15.70;96286.00;;;;5029353;28;20281;-79
2023/05/14 02:55:36;;;;;;;5.57;5.07;;;15.50;84.10;15.70;96290.00;;;;5026817;28;20599;-79
2023/05/14 02:58:03;;;;;;;5.47;5.00;;;15.50;83.90;15.70;96288.00;;;;5046559;28;20200;-79
2023/05/14 03:00:30;;;;;;;5.40;4.97;;;15.50;83.80;15.70;96290.00;;;;5035455;28;20197;-79
2023/05/14 03:02:59;;;;;;;5.37;4.97;;;15.50;83.80;15.70;96298.00;;;;5047364;28;20193;-79
2023/05/14 03:05:26;;;;;;;5.77;5.27;;;15.50;84.00;15.70;96295.00;;;;5061954;28;20311;-79
2023/05/14 03:07:54;;;;;;;5.80;5.17;;;15.50;84.10;15.70;96292.00;;;;5054706;28;20205;-79
2023/05/14 03:10:21;;;;;;;5.73;5.30;;;15.50;84.10;15.70;96287.00;;;;5035580;28;20193;-79
2023/05/14 03:12:48;;;;;;;5.80;5.30;;;15.50;84.00;15.70;96281.00;;;;5036726;28;20193;-79
2023/05/14 03:15:15;;;;;;;6.23;5.40;;;15.50;84.10;15.70;96282.00;;;;5038022;28;20209;-79
2023/05/14 03:17:42;;;;;;;5.43;5.03;;;15.50;84.20;15.70;96286.00;;;;5023603;28;20575;-79
2023/05/14 03:20:13;;;;;;;6.03;5.50;;;15.50;84.10;15.80;96287.00;;;;5046679;28;20188;-79
2023/05/14 03:22:40;;;;;;;5.27;4.77;;;15.60;83.90;15.80;96281.00;;;;5023164;28;20223;-79
2023/05/14 03:25:08;;;;;;;6.20;5.60;;;15.60;84.00;15.80;96282.00;;;;5034211;28;20228;-79
2023/05/14 03:27:36;;;;;;;5.63;5.23;;;15.60;83.80;15.80;96278.00;;;;5013229;28;20208;-79
2023/05/14 03:30:03;;;;;;;5.90;5.40;;;15.60;83.80;15.80;96280.00;;;;5012887;28;20215;-79
2023/05/14 03:32:31;;;;;;;5.87;5.37;;;15.60;83.70;15.70;96270.00;;;;5030724;28;20580;-79
2023/05/14 03:34:59;;;;;;;5.27;4.87;;;15.60;83.70;15.70;96282.00;;;;5030912;28;20250;-79
2023/05/14 03:37:27;;;;;;;5.30;4.90;;;15.60;83.80;15.70;96268.00;;;;5043383;28;20208;-79
2023/05/14 03:39:54;;;;;;;5.60;5.10;;;15.60;83.80;15.70;96276.00;;;;5041995;28;20675;-79
2023/05/14 03:42:22;;;;;;;5.27;4.87;;;15.60;83.60;15.70;96269.00;;;;5024907;28;20570;-79
2023/05/14 03:44:49;;;;;;;6.00;5.40;;;15.60;83.50;15.70;96273.00;;;;5033593;28;20590;-79
2023/05/14 03:47:16;;;;;;;6.17;5.67;;;15.60;83.60;15.70;96275.00;;;;5034577;28;20197;-79
2023/05/14 03:49:43;;;;;;;6.07;5.53;;;15.60;83.50;15.70;96280.00;;;;5051057;28;20199;-79
2023/05/14 03:52:11;;;;;;;6.10;5.50;;;15.50;83.40;15.70;96281.00;;;;5038863;28;20647;-79
2023/05/14 03:54:40;;;;;;;6.17;5.67;;;15.50;83.40;15.70;96275.00;;;;5035724;28;20227;-79
2023/05/14 03:57:07;;;;;;;6.87;5.37;;;15.50;83.30;15.70;96275.00;;;;5050665;28;20192;-79
2023/05/14 03:59:34;;;;;;;5.87;5.37;;;15.50;83.20;15.70;96278.00;;;;5047471;28;20650;-79
2023/05/14 04:02:02;;;;;;;6.40;5.37;;;15.50;83.40;15.70;96276.00;;;;5041596;28;20193;-79
2023/05/14 04:04:29;;;;;;;6.03;5.43;;;15.50;83.40;15.70;96282.00;;;;5039175;28;20316;-79
2023/05/14 04:06:56;;;;;;;5.60;5.10;;;15.50;83.50;15.70;96279.00;;;;5039502;28;20198;-79
2023/05/14 04:09:23;;;;;;;5.77;5.17;;;15.50;83.60;15.70;96276.00;;;;5043509;28;20198;-79
2023/05/14 04:11:52;;;;;;;5.40;5.00;;;15.50;83.60;15.70;96275.00;;;;5043677;28;20192;-79
2023/05/14 04:14:19;;;;;;;5.60;5.20;;;15.50;83.80;15.70;96280.00;;;;5051682;28;20222;-79
2023/05/14 04:16:46;;;;;;;5.70;5.30;;;15.50;83.80;15.70;96282.00;;;;5051708;28;20296;-79
2023/05/14 04:19:13;;;;;;;6.40;5.80;;;15.50;84.60;15.70;96274.00;;;;4998439;28;20219;-79
2023/05/14 04:21:40;;;;;;;5.90;5.30;;;15.50;84.00;15.70;96276.00;;;;5045669;28;20206;-79
2023/05/14 04:24:08;;;;;;;6.30;5.80;;;15.50;84.20;15.80;96276.00;;;;5038661;28;20225;-79
2023/05/14 04:26:35;;;;;;;7.10;6.17;;;15.60;84.30;15.80;96274.00;;;;5033116;28;20205;-79
2023/05/14 04:29:05;;;;;;;5.97;5.47;;;15.60;85.00;15.80;96281.00;;;;5021422;28;20673;-79
2023/05/14 04:31:33;;;;;;;6.60;6.00;;;15.60;84.40;15.80;96282.00;;;;5043568;28;20696;-79
2023/05/14 04:34:00;;;;;;;5.97;5.47;;;15.60;84.40;15.80;96279.00;;;;5039808;28;20221;-79
2023/05/14 04:36:27;;;;;;;6.00;5.40;;;15.60;84.40;15.80;96280.00;;;;5048679;28;20208;-79
2023/05/14 04:38:54;;;;;;;6.00;5.50;;;15.60;84.40;15.80;96285.00;;;;5054037;28;20283;-78
2023/05/14 04:41:21;;;;;;;6.30;5.80;;;15.70;84.20;15.90;96277.00;;;;5038079;28;20198;-79
2023/05/14 04:43:50;;;;;;;5.97;5.47;;;15.70;84.20;15.80;96280.00;;;;5034465;28;20706;-79
2023/05/14 04:46:19;;;;;;;6.10;5.60;;;15.70;84.10;15.90;96284.00;;;;5041993;28;20203;-79
2023/05/14 04:48:47;;;;;;;5.80;5.30;;;15.70;84.10;15.90;96286.00;;;;5054518;28;20203;-79
2023/05/14 04:51:14;;;;;;;6.10;5.60;;;15.70;84.10;15.90;96287.00;;;;5038107;28;20198;-79
2023/05/14 04:53:41;;;;;;;6.30;5.70;;;15.70;84.10;15.90;96285.00;;;;5050911;28;20230;-79
2023/05/14 04:56:09;;;;;;;6.67;5.93;;;15.70;84.00;15.90;96288.00;;;;5016694;28;20306;-78
2023/05/14 04:58:36;;;;;;;6.00;5.47;;;15.70;83.80;15.90;96289.00;;;;5029774;28;20194;-79
2023/05/14 05:01:06;;;;;;;6.40;5.80;;;15.70;83.60;15.90;96280.00;;;;5040231;28;20200;-79
2023/05/14 05:03:34;;;;;;;6.80;6.10;;;15.70;83.40;15.90;96281.00;;;;5042977;28;20221;-80
2023/05/14 05:06:02;;;;;;;6.53;5.93;;;15.70;83.30;15.90;96279.00;;;;5046165;28;20216;-80
2023/05/14 05:08:29;;;;;;;7.50;6.80;;;15.70;83.40;15.90;96288.00;;;;5026974;28;20268;-79
2023/05/14 05:10:56;;;;;;;7.43;6.70;;;15.70;83.50;15.90;96284.00;;;;5056247;28;20196;-80
2023/05/14 05:13:24;;;;;;;7.47;6.77;;;15.70;83.10;15.90;96290.00;;;;5051284;28;20213;-80
2023/05/14 05:15:51;;;;;;;7.43;6.73;;;15.70;83.00;15.90;96291.00;;;;5020834;28;20719;-80
2023/05/14 05:18:18;;;;;;;8.33;7.23;;;15.70;83.10;15.90;96284.00;;;;5053722;28;20288;-80
2023/05/14 05:20:47;;;;;;;7.60;6.97;;;15.70;83.10;15.90;96291.00;;;;5051576;28;20283;-80
2023/05/14 05:23:14;;;;;;;8.57;7.27;;;15.70;83.20;15.90;96287.00;;;;5045198;28;20308;-80
2023/05/14 05:25:41;;;;;;;7.50;6.80;;;15.70;83.10;15.90;96281.00;;;;5053715;28;20224;-80
2023/05/14 05:28:08;;;;;;;8.13;7.33;;;15.70;83.20;15.90;96276.00;;;;5043684;28;20247;-79
2023/05/14 05:30:35;;;;;;;8.33;7.33;;;15.70;83.20;15.90;96284.00;;;;5037333;28;20208;-80
2023/05/14 05:33:03;;;;;;;8.10;7.30;;;15.70;83.30;15.90;96288.00;;;;5023047;28;20195;-80
2023/05/14 05:35:30;;;;;;;7.87;7.07;;;15.70;82.90;15.90;96286.00;;;;5056893;28;20208;-79
2023/05/14 05:37:59;;;;;;;8.37;6.80;;;15.70;82.70;15.90;96286.00;;;;5051750;28;20220;-79
2023/05/14 05:40:27;;;;;;;7.97;7.27;;;15.70;82.40;15.80;96282.00;;;;5054957;28;20276;-79
2023/05/14 05:42:54;;;;;;;7.63;6.90;;;15.70;82.60;15.80;96279.00;;;;5034941;28;20193;-79
2023/05/14 05:45:21;;;;;;;7.73;6.93;;;15.70;82.70;15.80;96279.00;;;;5056656;28;20223;-79
2023/05/14 05:47:48;;;;;;;9.03;6.63;;;15.70;82.70;15.80;96278.00;;;;5059055;28;20192;-80
2023/05/14 05:50:16;;;;;;;7.77;7.00;;;15.70;82.60;15.80;96283.00;;;;5061388;28;20288;-80
2023/05/14 05:52:43;;;;;;;7.80;7.00;;;15.70;82.50;15.80;96282.00;;;;5045299;28;20639;-80
2023/05/14 05:55:12;;;;;;;7.73;6.73;;;15.70;82.70;15.80;96287.00;;;;5039821;28;20224;-80
2023/05/14 05:57:39;;;;;;;7.63;6.83;;;15.70;82.60;15.80;96284.00;;;;5034656;28;20209;-80
2023/05/14 06:00:12;;;;;;;7.10;6.50;;;15.70;82.40;15.80;96282.00;;;;5042777;28;20207;-79
2023/05/14 06:02:48;;;;;;;6.93;6.33;;;15.70;82.50;15.80;96289.00;;;;5052624;28;20197;-80
2023/05/14 06:05:15;;;;;;;7.03;6.37;;;15.70;82.40;15.80;96292.00;;;;5055730;28;20220;-79
2023/05/14 06:07:43;;;;;;;6.47;5.87;;;15.70;82.60;15.80;96294.00;;;;5030707;28;20193;-79
2023/05/14 06:10:11;;;;;;;7.60;6.87;;;15.70;82.90;15.90;96297.00;;;;5054763;28;20201;-81
2023/05/14 06:12:39;;;;;;;7.20;6.50;;;15.70;82.90;15.90;96296.00;;;;5047573;28;20243;-81
2023/05/14 06:15:08;;;;;;;7.30;6.60;;;15.70;82.70;16.00;96295.00;;;;5049628;28;20221;-81
2023/05/14 06:17:38;;;;;;;7.07;6.37;;;15.70;82.50;16.00;96296.00;;;;5044872;28;20219;-81
2023/05/14 06:20:08;;;;;;;7.60;5.90;;;15.70;82.60;16.10;96304.00;;;;5036865;28;20669;-82
2023/05/14 06:22:36;;;;;;;6.23;5.73;;;15.80;82.60;16.10;96299.00;;;;5046102;28;20197;-81
2023/05/14 06:25:05;;;;;;;6.43;5.83;;;15.80;82.60;16.20;96303.00;;;;5052466;28;20252;-81
2023/05/14 06:27:34;;;;;;;6.33;5.73;;;15.80;82.50;16.20;96297.00;;;;5046996;28;20209;-80
2023/05/14 06:30:03;;;;;;;5.70;5.20;;;15.90;82.50;16.20;96293.00;;;;5045352;28;20217;-81
2023/05/14 06:32:30;;;;;;;6.17;5.60;;;15.90;82.40;16.30;96297.00;;;;5035554;28;20235;-81
2023/05/14 06:34:57;;;;;;;6.17;5.57;;;15.90;82.50;16.30;96295.00;;;;5055000;28;20226;-83
2023/05/14 06:37:24;;;;;;;5.97;5.43;;;15.90;82.50;16.30;96296.00;;;;5017784;28;20205;-81
2023/05/14 06:40:03;;;;;;;6.30;5.70;;;15.90;82.60;16.40;96293.00;;;;5053462;28;20260;-82
2023/05/14 06:42:30;;;;;;;6.40;5.80;;;16.00;82.20;16.40;96300.00;;;;5044478;28;20283;-81
2023/05/14 06:45:00;;;;;;;5.93;5.40;;;16.00;82.50;16.40;96300.00;;;;5052542;28;20228;-81
2023/05/14 06:47:28;;;;;;;6.43;5.83;;;16.00;82.40;16.40;96299.00;;;;5034815;28;20681;-80
2023/05/14 06:49:57;;;;;;;5.70;5.20;;;16.00;82.50;16.50;96298.00;;;;5027626;28;20255;-81
2023/05/14 06:52:24;;;;;;;6.60;6.00;;;16.10;82.60;16.50;96291.00;;;;5035088;28;20297;-81
2023/05/14 06:54:57;;;;;;;5.97;5.43;;;16.10;82.50;16.50;96292.00;;;;5047396;28;20219;-82
2023/05/14 06:57:36;;;;;;;6.37;5.80;;;16.10;82.40;16.50;96284.00;;;;5056757;28;20197;-81
2023/05/14 07:00:07;;;;;;;7.77;6.00;;;16.10;81.80;16.60;96293.00;;;;5049097;28;20189;-81
2023/05/14 07:02:34;;;;;;;6.03;5.30;;;16.20;82.30;16.60;96290.00;;;;5032565;28;20267;-81
2023/05/14 07:05:02;;;;;;;6.93;5.80;;;16.20;82.60;16.70;96289.00;;;;5041564;28;20315;-81
2023/05/14 07:07:29;;;;;;;5.80;5.30;;;16.20;82.70;16.70;96282.00;;;;5045389;28;20261;-81
2023/05/14 07:09:56;;;;;;;6.00;5.50;;;16.30;82.70;16.80;96292.00;;;;5026528;28;20207;-81
2023/05/14 07:12:24;;;;;;;5.77;5.27;;;16.30;82.60;16.80;96291.00;;;;5038033;28;20199;-81
2023/05/14 07:14:52;;;;;;;6.77;5.63;;;16.30;82.60;16.90;96285.00;;;;5042797;28;20228;-81
2023/05/14 07:17:20;;;;;;;6.77;5.70;;;16.40;82.60;17.00;96279.00;;;;5050474;28;20216;-81
2023/05/14 07:19:48;;;;;;;6.67;5.67;;;16.40;82.40;17.00;96273.00;;;;5035547;28;20279;-81
2023/05/14 07:22:15;;;;;;;5.77;5.23;;;16.50;82.60;17.10;96280.00;;;;5040433;28;20215;-81
2023/05/14 07:24:43;;;;;;;6.07;5.57;;;16.50;82.80;17.20;96274.00;;;;5001830;28;20224;-81
2023/05/14 07:27:11;;;;;;;5.30;4.90;;;16.60;82.90;17.40;96269.00;;;;5038009;28;20284;-81
2023/05/14 07:29:38;;;;;;;5.47;4.97;;;16.70;82.90;17.50;96266.00;;;;5054194;28;20201;-81
2023/05/14 07:32:05;;;;;;;6.23;5.33;;;16.80;82.80;17.60;96264.00;;;;5054283;28;20694;-81
2023/05/14 07:34:34;;;;;;;5.77;5.27;;;16.90;82.40;17.70;96263.00;;;;5021826;28;20221;-81
2023/05/14 07:37:02;;;;;;;5.23;4.67;;;17.00;82.20;17.80;96262.00;;;;5047039;28;20284;-81
2023/05/14 07:39:29;;;;;;;4.90;4.50;;;17.00;82.00;17.80;96271.00;;;;5037677;28;20207;-81
2023/05/14 07:41:56;;;;;;;4.40;4.00;;;17.10;82.00;17.90;96275.00;;;;5048681;28;20200;-81
2023/05/14 07:44:24;;;;;;;4.70;4.30;;;17.20;81.90;18.00;96274.00;;;;5039420;28;20304;-81
2023/05/14 07:46:51;;;;;;;5.07;4.67;;;17.30;81.90;18.10;96270.00;;;;5053443;28;20259;-81
2023/05/14 07:49:18;;;;;;;4.53;4.13;;;17.40;81.90;18.20;96266.00;;;;5032766;28;20196;-82
2023/05/14 07:51:47;;;;;;;4.97;4.57;;;17.50;81.60;18.20;96264.00;;;;5042719;28;20200;-81
2023/05/14 07:54:16;;;;;;;5.57;4.10;;;17.50;81.20;18.30;96263.00;;;;5051939;28;20212;-81
2023/05/14 07:56:44;;;;;;;4.83;4.33;;;17.60;81.10;18.30;96259.00;;;;5032305;28;20197;-81
2023/05/14 07:59:11;;;;;;;5.03;4.63;;;17.60;80.80;18.30;96257.00;;;;5052922;28;20279;-81
2023/05/14 08:01:39;;;;;;;4.50;4.10;;;17.70;80.20;18.30;96269.00;;;;5034501;28;20194;-81
2023/05/14 08:04:06;;;;;;;3.80;3.50;;;17.70;79.40;18.20;96273.00;;;;5034620;28;20647;-81
2023/05/14 08:06:33;;;;;;;4.30;3.90;;;17.70;79.10;18.20;96272.00;;;;5029898;28;20220;-81
2023/05/14 08:09:04;;;;;;;4.43;4.13;;;17.70;78.40;18.10;96268.00;;;;5042489;28;20680;-81
2023/05/14 08:11:31;;;;;;;4.67;4.27;;;17.70;78.00;18.00;96259.00;;;;5057246;28;20256;-80
2023/05/14 08:13:58;;;;;;;4.13;3.83;;;17.70;78.20;18.00;96253.00;;;;5012088;28;20216;-81
2023/05/14 08:16:26;;;;;;;4.57;4.17;;;17.60;78.00;18.00;96255.00;;;;5025083;28;20205;-81
2023/05/14 08:18:53;;;;;;;4.57;4.17;;;17.60;77.90;18.00;96264.00;;;;5041072;28;20205;-81
2023/05/14 08:21:20;;;;;;;4.90;4.50;;;17.60;78.10;18.00;96259.00;;;;5045960;28;20264;-81
2023/05/14 08:23:47;;;;;;;5.07;4.63;;;17.60;78.30;18.10;96251.00;;;;5037434;28;20217;-81
2023/05/14 08:26:16;;;;;;;4.77;4.47;;;17.60;78.50;18.20;96256.00;;;;5031405;28;20237;-81
2023/05/14 08:28:46;;;;;;;5.47;4.57;;;17.60;78.70;18.30;96250.00;;;;5035930;28;20212;-82
2023/05/14 08:31:14;;;;;;;4.50;4.20;;;17.70;78.90;18.40;96249.00;;;;5029770;28;20642;-81
2023/05/14 08:33:41;;;;;;;4.80;4.50;;;17.70;79.00;18.50;96251.00;;;;5038979;28;20214;-81
2023/05/14 08:36:09;;;;;;;4.53;4.20;;;17.80;79.10;18.60;96259.00;;;;5050061;28;20204;-81
2023/05/14 08:38:36;;;;;;;5.33;4.70;;;17.90;79.20;18.70;96259.00;;;;5045657;28;20658;-82
2023/05/14 08:41:08;;;;;;;5.10;4.70;;;18.00;79.30;18.80;96257.00;;;;5043679;28;20203;-81
2023/05/14 08:43:58;;;;;;;5.13;4.73;;;18.00;78.60;18.80;96264.00;;;;5059086;28;20309;-81
2023/05/14 08:46:30;;;;;;;4.77;4.47;;;18.10;78.10;18.80;96253.00;;;;5052151;28;20224;-81
2023/05/14 08:49:14;;;;;;;4.80;4.50;;;18.20;78.80;18.90;96255.00;;;;5023930;28;20216;-80
2023/05/14 08:51:42;;;;;;;4.90;4.50;;;18.20;78.00;18.90;96249.00;;;;5046286;28;20221;-81
2023/05/14 08:54:14;;;;;;;5.90;5.30;;;18.30;78.20;18.90;96247.00;;;;5050888;28;20301;-81
2023/05/14 08:56:43;;;;;;;5.07;4.67;;;18.30;78.10;19.00;96249.00;;;;5051197;28;20207;-81
2023/05/14 08:59:12;;;;;;;5.13;4.80;;;18.30;78.20;19.00;96247.00;;;;5050896;28;20189;-81
2023/05/14 09:01:44;;;;;;;5.30;4.90;;;18.40;78.10;19.10;96249.00;;;;5039896;28;20707;-81
2023/05/14 09:04:13;;;;;;;5.10;4.70;;;18.40;78.10;19.20;96252.00;;;;5054017;28;20303;-81
2023/05/14 09:06:43;;;;;;;4.77;4.47;;;18.40;77.80;19.20;96249.00;;;;5047650;28;20260;-80
2023/05/14 09:09:11;;;;;;;4.57;4.17;;;18.50;77.70;19.30;96246.00;;;;5052037;28;20283;-81
2023/05/14 09:11:42;;;;;;;4.83;4.33;;;18.50;77.80;19.40;96242.00;;;;5055995;28;20266;-80
2023/05/14 09:14:11;;;;;;;3.80;3.50;;;18.60;77.80;19.50;96240.00;;;;5055956;28;20810;-80
2023/05/14 09:16:41;;;;;;;4.37;4.07;;;18.60;77.20;19.50;96235.00;;;;5056312;28;20211;-81
2023/05/14 09:19:09;;;;;;;4.40;4.00;;;18.70;77.10;19.50;96235.00;;;;5039837;28;20193;-80
2023/05/14 09:21:37;;;;;;;4.30;4.00;;;18.80;77.20;19.60;96244.00;;;;5056075;28;20201;-80
2023/05/14 09:24:04;;;;;;;4.37;4.07;;;18.90;77.30;19.70;96243.00;;;;5046957;28;20618;-80
2023/05/14 09:26:34;;;;;;;4.10;3.80;;;18.90;77.40;19.70;96241.00;;;;5039099;28;20235;-80
2023/05/14 09:29:03;;;;;;;4.30;4.00;;;19.00;77.30;19.70;96240.00;;;;5057233;28;20574;-81
2023/05/14 09:31:33;;;;;;;4.50;4.10;;;19.00;76.90;19.70;96248.00;;;;5060016;28;20207;-81
2023/05/14 09:34:01;;;;;;;4.40;4.10;;;19.00;76.40;19.70;96247.00;;;;5050764;28;20231;-81
2023/05/14 09:36:28;;;;;;;4.33;4.03;;;19.10;76.20;19.70;96241.00;;;;5034761;28;20209;-80
2023/05/14 09:38:57;;;;;;;4.30;4.00;;;19.10;76.20;19.70;96241.00;;;;5051337;28;20206;-81
2023/05/14 09:41:25;;;;;;;4.10;3.80;;;19.10;76.10;19.70;96240.00;;;;5059565;28;20196;-81
2023/05/14 09:43:53;;;;;;;4.50;4.20;;;19.10;76.20;19.70;96234.00;;;;5021891;28;20224;-81
2023/05/14 09:46:20;;;;;;;4.13;3.77;;;19.10;75.60;19.70;96240.00;;;;5051292;28;20768;-81
2023/05/14 09:48:49;;;;;;;4.53;4.17;;;19.10;75.40;19.70;96242.00;;;;5050981;28;20231;-81
2023/05/14 09:51:18;;;;;;;3.87;3.57;;;19.10;75.60;19.70;96234.00;;;;5039510;28;20279;-81
2023/05/14 09:53:46;;;;;;;4.10;3.80;;;19.10;75.10;19.60;96238.00;;;;5047780;28;20708;-81
2023/05/14 09:56:14;;;;;;;4.43;4.03;;;19.10;75.20;19.60;96229.00;;;;5057142;28;20207;-81
2023/05/14 09:58:41;;;;;;;4.40;4.00;;;19.10;75.10;19.60;96234.00;;;;5046079;28;20228;-81
2023/05/14 10:01:08;;;;;;;4.40;4.00;;;19.00;74.90;19.60;96235.00;;;;5045147;28;20293;-81
2023/05/14 10:03:37;;;;;;;4.13;3.83;;;19.10;75.00;19.60;96233.00;;;;5044539;28;20315;-81
2023/05/14 10:06:09;;;;;;;3.83;3.53;;;19.00;74.80;19.60;96239.00;;;;5015945;28;20264;-81
2023/05/14 10:08:42;;;;;;;5.00;4.57;;;19.10;74.50;19.60;96221.00;;;;5042329;28;20220;-81
2023/05/14 10:11:16;;;;;;;14.27;11.10;;;19.10;75.00;19.60;96231.00;;;;5050156;28;20191;-81
2023/05/14 10:13:56;;;;;;;7.97;7.27;;;19.10;74.00;19.60;96223.00;;;;5041986;28;20261;-81
2023/05/14 10:16:28;;;;;;;5.17;4.67;;;19.10;74.20;19.60;96228.00;;;;5034705;28;20201;-81
2023/05/14 10:19:04;;;;;;;4.77;4.40;;;19.10;74.40;19.60;96221.00;;;;5040024;28;20194;-81
2023/05/14 10:21:36;;;;;;;7.27;4.30;;;19.10;74.40;19.60;96228.00;;;;5039390;28;20602;-81
2023/05/14 10:24:06;;;;;;;4.20;3.90;;;19.10;74.80;19.70;96227.00;;;;5035493;28;20213;-81
2023/05/14 10:26:39;;;;;;;4.30;4.00;;;19.10;75.20;19.70;96219.00;;;;5033498;28;20225;-81
2023/05/14 10:29:09;;;;;;;3.87;3.57;;;19.10;75.10;19.70;96215.00;;;;5033887;28;20232;-81
2023/05/14 10:31:49;;;;;;;4.10;3.80;;;19.10;74.80;19.70;96216.00;;;;5035251;28;20728;-81
2023/05/14 10:34:36;;;;;;;4.30;4.00;;;19.10;74.40;19.70;96216.00;;;;5048384;28;20886;-81
2023/05/14 10:37:07;;;;;;;5.73;5.23;;;19.10;73.80;19.70;96213.00;;;;5042750;28;20729;-81
2023/05/14 10:39:45;;;;;;;4.60;4.20;;;19.10;75.00;19.80;96215.00;;;;5043296;28;20209;-81
2023/05/14 10:42:16;;;;;;;4.03;3.73;;;19.10;74.80;19.80;96220.00;;;;5033488;28;20266;-81
2023/05/14 10:44:53;;;;;;;3.70;3.40;;;19.20;74.90;19.90;96216.00;;;;5050853;28;20784;-81
2023/05/14 10:47:20;;;;;;;3.33;3.07;;;19.20;73.70;19.90;96210.00;;;;5024555;28;20248;-81
2023/05/14 10:49:48;;;;;;;3.90;3.60;;;19.20;74.50;20.00;96210.00;;;;5021791;28;20584;-81
2023/05/14 10:52:19;;;;;;;3.77;3.47;;;19.30;74.50;20.10;96213.00;;;;5040688;28;20197;-81
2023/05/14 10:54:51;;;;;;;3.47;3.27;;;19.30;74.10;20.10;96216.00;;;;5046338;28;20236;-81
2023/05/14 10:57:19;;;;;;;4.30;4.00;;;19.40;74.40;20.10;96202.00;;;;5046591;28;20201;-81
2023/05/14 10:59:53;;;;;;;4.00;3.70;;;19.40;74.30;20.20;96205.00;;;;5049477;28;20222;-82
2023/05/14 11:02:27;;;;;;;3.67;3.40;;;19.50;73.70;20.10;96212.00;;;;5051581;28;20197;-82